sensor_id;sensor_type;location;lat;lon;timestamp;temperature;humidity
16976;DHT22;8604;48.148;-1.786;2022-10-22T00:02:49;15.90;99.90
16976;DHT22;8604;48.148;-1.786;2022-10-22T00:05:18;15.90;99.90
16976;DHT22;8604;48.148;-1.786;2022-10-22T00:07:46;15.80;99.90
16976;DHT22;8604;48.148;-1.786;2022-10-22T00:10:15;15.80;99.90
16976;DHT22;8604;48.148;-1.786;2022-10-22T00:12:45;15.80;99.90
16976;DHT22;8604;48.148;-1.786;2022-10-22T00:15:13;15.70;99.90
16976;DHT22;8604;48.148;-1.786;2022-10-22T00:17:42;15.70;99.90
16976;DHT22;8604;48.148;-1.786;2022-10-22T00:20:12;15.70;99.90
16976;DHT22;8604;48.148;-1.786;2022-10-22T00:22:41;15.60;99.90
16976;DHT22;8604;48.148;-1.786;2022-10-22T00:25:09;15.60;99.90
16976;DHT22;8604;48.148;-1.786;2022-10-22T00:27:38;15.60;99.90
16976;DHT22;8604;48.148;-1.786;2022-10-22T00:30:08;15.60;99.90
16976;DHT22;8604;48.148;-1.786;2022-10-22T00:32:37;15.50;99.90
16976;DHT22;8604;48.148;-1.786;2022-10-22T00:35:07;15.50;99.90
16976;DHT22;8604;48.148;-1.786;2022-10-22T00:37:39;15.50;99.90
16976;DHT22;8604;48.148;-1.786;2022-10-22T00:40:10;15.50;99.90
16976;DHT22;8604;48.148;-1.786;2022-10-22T00:42:39;15.50;99.90
16976;DHT22;8604;48.148;-1.786;2022-10-22T00:45:21;15.50;99.90
16976;DHT22;8604;48.148;-1.786;2022-10-22T00:47:53;15.50;99.90
16976;DHT22;8604;48.148;-1.786;2022-10-22T00:50:25;15.50;99.90
16976;DHT22;8604;48.148;-1.786;2022-10-22T00:52:56;15.50;99.90
16976;DHT22;8604;48.148;-1.786;2022-10-22T00:55:26;15.40;99.90
16976;DHT22;8604;48.148;-1.786;2022-10-22T00:57:56;15.50;99.90
16976;DHT22;8604;48.148;-1.786;2022-10-22T01:00:25;15.40;99.90
16976;DHT22;8604;48.148;-1.786;2022-10-22T01:02:54;15.40;99.90
16976;DHT22;8604;48.148;-1.786;2022-10-22T01:05:26;15.40;99.90
16976;DHT22;8604;48.148;-1.786;2022-10-22T01:07:57;15.40;99.90
16976;DHT22;8604;48.148;-1.786;2022-10-22T01:10:46;15.40;99.90
16976;DHT22;8604;48.148;-1.786;2022-10-22T01:13:28;15.30;99.90
16976;DHT22;8604;48.148;-1.786;2022-10-22T01:16:07;15.40;99.90
16976;DHT22;8604;48.148;-1.786;2022-10-22T01:18:42;15.30;99.90
16976;DHT22;8604;48.148;-1.786;2022-10-22T01:21:22;15.30;99.90
16976;DHT22;8604;48.148;-1.786;2022-10-22T01:24:14;15.30;99.90
16976;DHT22;8604;48.148;-1.786;2022-10-22T01:27:13;15.30;99.90
16976;DHT22;8604;48.148;-1.786;2022-10-22T01:29:48;15.30;99.90
16976;DHT22;8604;48.148;-1.786;2022-10-22T01:32:21;15.30;99.90
16976;DHT22;8604;48.148;-1.786;2022-10-22T01:35:03;15.40;99.90
16976;DHT22;8604;48.148;-1.786;2022-10-22T01:37:35;15.40;99.90
16976;DHT22;8604;48.148;-1.786;2022-10-22T01:40:07;15.30;99.90
16976;DHT22;8604;48.148;-1.786;2022-10-22T01:42:37;15.30;99.90
16976;DHT22;8604;48.148;-1.786;2022-10-22T01:45:12;15.30;99.90
16976;DHT22;8604;48.148;-1.786;2022-10-22T01:47:48;15.30;99.90
16976;DHT22;8604;48.148;-1.786;2022-10-22T01:50:43;15.30;99.90
16976;DHT22;8604;48.148;-1.786;2022-10-22T01:53:22;15.30;99.90
16976;DHT22;8604;48.148;-1.786;2022-10-22T01:56:03;15.30;99.90
16976;DHT22;8604;48.148;-1.786;2022-10-22T01:58:41;15.20;99.90
16976;DHT22;8604;48.148;-1.786;2022-10-22T02:01:18;15.20;99.90
16976;DHT22;8604;48.148;-1.786;2022-10-22T02:03:55;15.20;99.90
16976;DHT22;8604;48.148;-1.786;2022-10-22T02:06:28;15.20;99.90
16976;DHT22;8604;48.148;-1.786;2022-10-22T02:08:59;15.30;99.90
16976;DHT22;8604;48.148;-1.786;2022-10-22T02:14:14;15.20;99.90
16976;DHT22;8604;48.148;-1.786;2022-10-22T02:16:48;15.20;99.90
16976;DHT22;8604;48.148;-1.786;2022-10-22T02:19:24;15.20;99.90
16976;DHT22;8604;48.148;-1.786;2022-10-22T02:21:53;15.20;99.90
16976;DHT22;8604;48.148;-1.786;2022-10-22T02:24:23;15.20;99.90
16976;DHT22;8604;48.148;-1.786;2022-10-22T02:27:00;15.20;99.90
16976;DHT22;8604;48.148;-1.786;2022-10-22T02:29:36;15.20;99.90
16976;DHT22;8604;48.148;-1.786;2022-10-22T02:32:09;15.20;99.90
16976;DHT22;8604;48.148;-1.786;2022-10-22T02:34:41;15.20;99.90
16976;DHT22;8604;48.148;-1.786;2022-10-22T02:37:09;15.10;99.90
16976;DHT22;8604;48.148;-1.786;2022-10-22T02:39:38;15.10;99.90
16976;DHT22;8604;48.148;-1.786;2022-10-22T02:42:08;15.10;99.90
16976;DHT22;8604;48.148;-1.786;2022-10-22T02:44:38;15.10;99.90
16976;DHT22;8604;48.148;-1.786;2022-10-22T02:47:08;15.00;99.90
16976;DHT22;8604;48.148;-1.786;2022-10-22T02:49:37;15.10;99.90
16976;DHT22;8604;48.148;-1.786;2022-10-22T02:52:05;15.10;99.90
16976;DHT22;8604;48.148;-1.786;2022-10-22T02:54:34;15.00;99.90
16976;DHT22;8604;48.148;-1.786;2022-10-22T02:57:03;15.00;99.90
16976;DHT22;8604;48.148;-1.786;2022-10-22T02:59:31;15.00;99.90
16976;DHT22;8604;48.148;-1.786;2022-10-22T03:02:00;15.00;99.90
16976;DHT22;8604;48.148;-1.786;2022-10-22T03:04:37;14.90;99.90
16976;DHT22;8604;48.148;-1.786;2022-10-22T03:07:14;14.90;99.90
16976;DHT22;8604;48.148;-1.786;2022-10-22T03:09:57;14.90;99.90
16976;DHT22;8604;48.148;-1.786;2022-10-22T03:12:27;14.90;99.90
16976;DHT22;8604;48.148;-1.786;2022-10-22T03:15:00;14.90;99.90
16976;DHT22;8604;48.148;-1.786;2022-10-22T03:17:34;14.90;99.90
16976;DHT22;8604;48.148;-1.786;2022-10-22T03:20:09;14.90;99.90
16976;DHT22;8604;48.148;-1.786;2022-10-22T03:22:40;14.90;99.90
16976;DHT22;8604;48.148;-1.786;2022-10-22T03:25:15;14.80;99.90
16976;DHT22;8604;48.148;-1.786;2022-10-22T03:27:55;14.90;99.90
16976;DHT22;8604;48.148;-1.786;2022-10-22T03:30:27;14.90;99.90
16976;DHT22;8604;48.148;-1.786;2022-10-22T03:33:02;14.90;99.90
16976;DHT22;8604;48.148;-1.786;2022-10-22T03:35:43;14.90;99.90
16976;DHT22;8604;48.148;-1.786;2022-10-22T03:38:13;14.80;99.90
16976;DHT22;8604;48.148;-1.786;2022-10-22T03:40:45;14.80;99.90
16976;DHT22;8604;48.148;-1.786;2022-10-22T03:43:25;14.80;99.90
16976;DHT22;8604;48.148;-1.786;2022-10-22T03:46:00;14.80;99.90
16976;DHT22;8604;48.148;-1.786;2022-10-22T03:48:39;14.80;99.90
16976;DHT22;8604;48.148;-1.786;2022-10-22T03:51:15;14.80;99.90
16976;DHT22;8604;48.148;-1.786;2022-10-22T03:53:56;14.80;99.90
16976;DHT22;8604;48.148;-1.786;2022-10-22T03:56:30;14.80;99.90
16976;DHT22;8604;48.148;-1.786;2022-10-22T03:59:08;14.80;99.90
16976;DHT22;8604;48.148;-1.786;2022-10-22T04:01:49;14.80;99.90
16976;DHT22;8604;48.148;-1.786;2022-10-22T04:04:18;14.80;99.90
16976;DHT22;8604;48.148;-1.786;2022-10-22T04:06:48;14.80;99.90
16976;DHT22;8604;48.148;-1.786;2022-10-22T04:09:16;14.80;99.90
16976;DHT22;8604;48.148;-1.786;2022-10-22T04:11:45;14.80;99.90
16976;DHT22;8604;48.148;-1.786;2022-10-22T04:14:13;14.80;99.90
16976;DHT22;8604;48.148;-1.786;2022-10-22T04:16:42;14.80;99.90
16976;DHT22;8604;48.148;-1.786;2022-10-22T04:19:10;14.80;99.90
16976;DHT22;8604;48.148;-1.786;2022-10-22T04:21:39;14.80;99.90
16976;DHT22;8604;48.148;-1.786;2022-10-22T04:24:09;14.80;99.90
16976;DHT22;8604;48.148;-1.786;2022-10-22T04:26:37;14.70;99.90
16976;DHT22;8604;48.148;-1.786;2022-10-22T04:29:06;14.70;99.90
16976;DHT22;8604;48.148;-1.786;2022-10-22T04:31:41;14.70;99.90
16976;DHT22;8604;48.148;-1.786;2022-10-22T04:34:09;14.70;99.90
16976;DHT22;8604;48.148;-1.786;2022-10-22T04:36:38;14.70;99.90
16976;DHT22;8604;48.148;-1.786;2022-10-22T04:39:06;14.60;99.90
16976;DHT22;8604;48.148;-1.786;2022-10-22T04:41:38;14.60;99.90
16976;DHT22;8604;48.148;-1.786;2022-10-22T04:44:06;14.60;99.90
16976;DHT22;8604;48.148;-1.786;2022-10-22T04:46:42;14.60;99.90
16976;DHT22;8604;48.148;-1.786;2022-10-22T04:49:11;14.50;99.90
16976;DHT22;8604;48.148;-1.786;2022-10-22T04:51:40;14.50;99.90
16976;DHT22;8604;48.148;-1.786;2022-10-22T04:54:09;14.50;99.90
16976;DHT22;8604;48.148;-1.786;2022-10-22T04:56:39;14.50;99.90
16976;DHT22;8604;48.148;-1.786;2022-10-22T04:59:09;14.50;99.90
16976;DHT22;8604;48.148;-1.786;2022-10-22T05:01:41;14.50;99.90
16976;DHT22;8604;48.148;-1.786;2022-10-22T05:04:15;14.50;99.90
16976;DHT22;8604;48.148;-1.786;2022-10-22T05:06:46;14.50;99.90
16976;DHT22;8604;48.148;-1.786;2022-10-22T05:09:17;14.50;99.90
16976;DHT22;8604;48.148;-1.786;2022-10-22T05:11:49;14.50;99.90
16976;DHT22;8604;48.148;-1.786;2022-10-22T05:14:22;14.50;99.90
16976;DHT22;8604;48.148;-1.786;2022-10-22T05:17:03;14.50;99.90
16976;DHT22;8604;48.148;-1.786;2022-10-22T05:19:48;14.50;99.90
16976;DHT22;8604;48.148;-1.786;2022-10-22T05:22:25;14.60;99.90
16976;DHT22;8604;48.148;-1.786;2022-10-22T05:25:02;14.60;99.90
16976;DHT22;8604;48.148;-1.786;2022-10-22T05:27:38;14.60;99.90
16976;DHT22;8604;48.148;-1.786;2022-10-22T05:30:13;14.60;99.90
16976;DHT22;8604;48.148;-1.786;2022-10-22T05:32:44;14.60;99.90
16976;DHT22;8604;48.148;-1.786;2022-10-22T05:35:13;14.60;99.90
16976;DHT22;8604;48.148;-1.786;2022-10-22T05:37:46;14.60;99.90
16976;DHT22;8604;48.148;-1.786;2022-10-22T05:40:29;14.60;99.90
16976;DHT22;8604;48.148;-1.786;2022-10-22T05:43:04;14.60;99.90
16976;DHT22;8604;48.148;-1.786;2022-10-22T08:37:05;16.20;99.90
16976;DHT22;8604;48.148;-1.786;2022-10-22T08:39:35;16.30;99.90
16976;DHT22;8604;48.148;-1.786;2022-10-22T08:42:42;16.30;99.90
16976;DHT22;8604;48.148;-1.786;2022-10-22T08:45:19;16.40;99.90
16976;DHT22;8604;48.148;-1.786;2022-10-22T08:48:09;16.50;99.90
16976;DHT22;8604;48.148;-1.786;2022-10-22T08:50:46;16.60;99.90
16976;DHT22;8604;48.148;-1.786;2022-10-22T08:53:20;16.70;99.90
16976;DHT22;8604;48.148;-1.786;2022-10-22T08:55:52;16.90;99.90
16976;DHT22;8604;48.148;-1.786;2022-10-22T08:58:30;17.00;99.90
16976;DHT22;8604;48.148;-1.786;2022-10-22T09:01:03;17.20;99.90
16976;DHT22;8604;48.148;-1.786;2022-10-22T09:03:43;17.30;99.90
16976;DHT22;8604;48.148;-1.786;2022-10-22T09:06:15;17.30;99.90
16976;DHT22;8604;48.148;-1.786;2022-10-22T09:08:47;17.30;99.90
16976;DHT22;8604;48.148;-1.786;2022-10-22T09:11:22;17.20;99.90
16976;DHT22;8604;48.148;-1.786;2022-10-22T09:13:54;17.20;99.90
16976;DHT22;8604;48.148;-1.786;2022-10-22T09:16:37;17.20;99.90
16976;DHT22;8604;48.148;-1.786;2022-10-22T09:19:21;17.30;99.90
16976;DHT22;8604;48.148;-1.786;2022-10-22T09:21:57;17.30;99.90
16976;DHT22;8604;48.148;-1.786;2022-10-22T09:24:37;17.30;99.90
16976;DHT22;8604;48.148;-1.786;2022-10-22T09:27:13;17.40;99.90
16976;DHT22;8604;48.148;-1.786;2022-10-22T09:29:43;17.40;99.90
16976;DHT22;8604;48.148;-1.786;2022-10-22T09:32:14;17.50;99.90
16976;DHT22;8604;48.148;-1.786;2022-10-22T09:34:44;17.70;99.90
16976;DHT22;8604;48.148;-1.786;2022-10-22T09:37:16;17.90;99.90
16976;DHT22;8604;48.148;-1.786;2022-10-22T09:39:51;17.90;99.90
16976;DHT22;8604;48.148;-1.786;2022-10-22T09:42:21;18.00;99.90
16976;DHT22;8604;48.148;-1.786;2022-10-22T09:44:52;18.10;99.90
16976;DHT22;8604;48.148;-1.786;2022-10-22T09:47:37;18.20;99.90
16976;DHT22;8604;48.148;-1.786;2022-10-22T09:50:36;18.30;99.90
16976;DHT22;8604;48.148;-1.786;2022-10-22T09:53:34;18.40;99.90
16976;DHT22;8604;48.148;-1.786;2022-10-22T09:57:22;18.60;99.90
16976;DHT22;8604;48.148;-1.786;2022-10-22T09:59:37;18.80;99.90
16976;DHT22;8604;48.148;-1.786;2022-10-22T11:44:33;21.80;99.90
16976;DHT22;8604;48.148;-1.786;2022-10-22T11:47:18;21.90;99.90
16976;DHT22;8604;48.148;-1.786;2022-10-22T11:49:56;22.10;99.90
16976;DHT22;8604;48.148;-1.786;2022-10-22T11:52:36;22.10;99.90
16976;DHT22;8604;48.148;-1.786;2022-10-22T11:58:39;22.30;99.90
16976;DHT22;8604;48.148;-1.786;2022-10-22T12:01:53;22.50;99.90
16976;DHT22;8604;48.148;-1.786;2022-10-22T12:04:39;22.60;99.90
16976;DHT22;8604;48.148;-1.786;2022-10-22T12:07:30;22.60;99.90
16976;DHT22;8604;48.148;-1.786;2022-10-22T12:09:59;22.50;99.90
16976;DHT22;8604;48.148;-1.786;2022-10-22T12:12:35;22.50;99.90
16976;DHT22;8604;48.148;-1.786;2022-10-22T12:15:21;22.40;99.90
16976;DHT22;8604;48.148;-1.786;2022-10-22T12:17:58;22.30;99.90
16976;DHT22;8604;48.148;-1.786;2022-10-22T12:20:32;22.20;99.90
16976;DHT22;8604;48.148;-1.786;2022-10-22T12:23:27;22.20;99.90
16976;DHT22;8604;48.148;-1.786;2022-10-22T12:25:56;22.10;99.90
16976;DHT22;8604;48.148;-1.786;2022-10-22T12:28:26;22.00;99.90
16976;DHT22;8604;48.148;-1.786;2022-10-22T12:30:58;22.00;99.90
16976;DHT22;8604;48.148;-1.786;2022-10-22T12:33:34;22.00;99.90
16976;DHT22;8604;48.148;-1.786;2022-10-22T12:36:12;22.00;99.90
16976;DHT22;8604;48.148;-1.786;2022-10-22T12:38:44;22.00;99.90
16976;DHT22;8604;48.148;-1.786;2022-10-22T12:41:14;22.00;99.90
16976;DHT22;8604;48.148;-1.786;2022-10-22T12:43:42;22.00;99.90
16976;DHT22;8604;48.148;-1.786;2022-10-22T12:46:12;22.10;99.90
16976;DHT22;8604;48.148;-1.786;2022-10-22T12:48:44;22.10;99.90
16976;DHT22;8604;48.148;-1.786;2022-10-22T12:51:16;22.10;99.90
16976;DHT22;8604;48.148;-1.786;2022-10-22T12:53:47;22.10;99.90
16976;DHT22;8604;48.148;-1.786;2022-10-22T12:56:21;22.10;99.90
16976;DHT22;8604;48.148;-1.786;2022-10-22T12:58:54;22.00;99.90
16976;DHT22;8604;48.148;-1.786;2022-10-22T13:01:52;21.90;99.90
16976;DHT22;8604;48.148;-1.786;2022-10-22T13:04:31;21.90;99.90
16976;DHT22;8604;48.148;-1.786;2022-10-22T13:07:13;21.80;99.90
16976;DHT22;8604;48.148;-1.786;2022-10-22T13:09:56;21.80;99.90
16976;DHT22;8604;48.148;-1.786;2022-10-22T13:12:26;21.80;99.90
16976;DHT22;8604;48.148;-1.786;2022-10-22T13:14:55;21.80;99.90
16976;DHT22;8604;48.148;-1.786;2022-10-22T13:17:37;21.80;99.90
16976;DHT22;8604;48.148;-1.786;2022-10-22T13:20:19;21.80;99.90
16976;DHT22;8604;48.148;-1.786;2022-10-22T13:22:53;21.70;99.90
16976;DHT22;8604;48.148;-1.786;2022-10-22T13:25:25;21.70;99.90
16976;DHT22;8604;48.148;-1.786;2022-10-22T13:27:55;21.70;99.90
16976;DHT22;8604;48.148;-1.786;2022-10-22T13:30:26;21.70;99.90
16976;DHT22;8604;48.148;-1.786;2022-10-22T13:32:57;21.80;99.90
16976;DHT22;8604;48.148;-1.786;2022-10-22T13:35:29;21.80;99.90
16976;DHT22;8604;48.148;-1.786;2022-10-22T13:37:59;21.90;99.90
16976;DHT22;8604;48.148;-1.786;2022-10-22T13:40:28;21.90;99.90
16976;DHT22;8604;48.148;-1.786;2022-10-22T13:42:56;21.80;99.90
16976;DHT22;8604;48.148;-1.786;2022-10-22T13:45:25;21.80;99.90
16976;DHT22;8604;48.148;-1.786;2022-10-22T13:47:54;21.80;99.90
16976;DHT22;8604;48.148;-1.786;2022-10-22T13:50:23;21.70;99.90
16976;DHT22;8604;48.148;-1.786;2022-10-22T13:52:55;21.70;99.90
16976;DHT22;8604;48.148;-1.786;2022-10-22T13:55:25;21.60;99.90
16976;DHT22;8604;48.148;-1.786;2022-10-22T13:57:56;21.60;99.90
16976;DHT22;8604;48.148;-1.786;2022-10-22T14:04:35;21.50;99.90
16976;DHT22;8604;48.148;-1.786;2022-10-22T14:07:09;21.50;99.90
16976;DHT22;8604;48.148;-1.786;2022-10-22T14:09:41;21.60;99.90
16976;DHT22;8604;48.148;-1.786;2022-10-22T14:12:12;21.60;99.90
16976;DHT22;8604;48.148;-1.786;2022-10-22T14:14:41;21.60;99.90
16976;DHT22;8604;48.148;-1.786;2022-10-22T14:17:12;21.70;99.90
16976;DHT22;8604;48.148;-1.786;2022-10-22T14:19:45;21.60;99.90
16976;DHT22;8604;48.148;-1.786;2022-10-22T14:22:15;21.60;99.90
16976;DHT22;8604;48.148;-1.786;2022-10-22T14:24:46;21.50;99.90
16976;DHT22;8604;48.148;-1.786;2022-10-22T14:27:15;21.50;99.90
16976;DHT22;8604;48.148;-1.786;2022-10-22T14:29:44;21.40;99.90
16976;DHT22;8604;48.148;-1.786;2022-10-22T14:32:14;21.30;99.90
16976;DHT22;8604;48.148;-1.786;2022-10-22T14:34:43;21.30;99.90
16976;DHT22;8604;48.148;-1.786;2022-10-22T14:37:17;21.20;99.90
16976;DHT22;8604;48.148;-1.786;2022-10-22T14:39:48;21.20;99.90
16976;DHT22;8604;48.148;-1.786;2022-10-22T14:42:25;21.20;99.90
16976;DHT22;8604;48.148;-1.786;2022-10-22T14:44:54;21.10;99.90
16976;DHT22;8604;48.148;-1.786;2022-10-22T14:47:23;21.10;99.90
16976;DHT22;8604;48.148;-1.786;2022-10-22T14:49:51;21.10;99.90
16976;DHT22;8604;48.148;-1.786;2022-10-22T14:52:20;21.10;99.90
16976;DHT22;8604;48.148;-1.786;2022-10-22T14:54:50;21.10;99.90
16976;DHT22;8604;48.148;-1.786;2022-10-22T14:57:19;21.10;99.90
16976;DHT22;8604;48.148;-1.786;2022-10-22T14:59:48;21.00;99.90
16976;DHT22;8604;48.148;-1.786;2022-10-22T15:06:28;20.90;99.90
16976;DHT22;8604;48.148;-1.786;2022-10-22T15:08:57;20.90;99.90
16976;DHT22;8604;48.148;-1.786;2022-10-22T15:11:27;20.80;99.90
16976;DHT22;8604;48.148;-1.786;2022-10-22T15:13:56;20.80;99.90
16976;DHT22;8604;48.148;-1.786;2022-10-22T15:16:25;20.80;99.90
16976;DHT22;8604;48.148;-1.786;2022-10-22T15:19:01;20.70;99.90
16976;DHT22;8604;48.148;-1.786;2022-10-22T15:21:37;20.70;99.90
16976;DHT22;8604;48.148;-1.786;2022-10-22T15:24:15;20.70;99.90
16976;DHT22;8604;48.148;-1.786;2022-10-22T15:26:45;20.70;99.90
16976;DHT22;8604;48.148;-1.786;2022-10-22T15:29:13;20.70;99.90
16976;DHT22;8604;48.148;-1.786;2022-10-22T15:31:48;20.60;99.90
16976;DHT22;8604;48.148;-1.786;2022-10-22T15:34:22;20.50;99.90
16976;DHT22;8604;48.148;-1.786;2022-10-22T15:36:53;20.50;99.90
16976;DHT22;8604;48.148;-1.786;2022-10-22T15:39:23;20.40;99.90
16976;DHT22;8604;48.148;-1.786;2022-10-22T15:41:53;20.30;99.90
16976;DHT22;8604;48.148;-1.786;2022-10-22T15:44:23;20.30;99.90
16976;DHT22;8604;48.148;-1.786;2022-10-22T15:46:54;20.30;99.90
16976;DHT22;8604;48.148;-1.786;2022-10-22T15:49:23;20.20;99.90
16976;DHT22;8604;48.148;-1.786;2022-10-22T15:51:53;20.20;99.90
16976;DHT22;8604;48.148;-1.786;2022-10-22T15:54:24;20.20;99.90
16976;DHT22;8604;48.148;-1.786;2022-10-22T15:56:56;20.20;99.90
16976;DHT22;8604;48.148;-1.786;2022-10-22T15:59:25;20.20;99.90
16976;DHT22;8604;48.148;-1.786;2022-10-22T16:06:15;20.20;99.90
16976;DHT22;8604;48.148;-1.786;2022-10-22T16:08:44;20.20;99.90
16976;DHT22;8604;48.148;-1.786;2022-10-22T16:11:13;20.10;99.90
16976;DHT22;8604;48.148;-1.786;2022-10-22T16:13:46;20.10;99.90
16976;DHT22;8604;48.148;-1.786;2022-10-22T16:16:14;20.00;99.90
16976;DHT22;8604;48.148;-1.786;2022-10-22T16:18:43;20.00;99.90
16976;DHT22;8604;48.148;-1.786;2022-10-22T16:21:12;20.00;99.90
16976;DHT22;8604;48.148;-1.786;2022-10-22T16:23:47;20.00;99.90
16976;DHT22;8604;48.148;-1.786;2022-10-22T16:26:25;19.90;99.90
16976;DHT22;8604;48.148;-1.786;2022-10-22T16:33:22;19.80;99.90
16976;DHT22;8604;48.148;-1.786;2022-10-22T16:36:11;19.80;99.90
16976;DHT22;8604;48.148;-1.786;2022-10-22T16:38:44;19.70;99.90
16976;DHT22;8604;48.148;-1.786;2022-10-22T16:41:25;19.70;99.90
16976;DHT22;8604;48.148;-1.786;2022-10-22T16:44:24;19.60;99.90
16976;DHT22;8604;48.148;-1.786;2022-10-22T16:47:00;19.50;99.90
16976;DHT22;8604;48.148;-1.786;2022-10-22T16:49:38;19.50;99.90
16976;DHT22;8604;48.148;-1.786;2022-10-22T16:52:07;19.40;99.90
16976;DHT22;8604;48.148;-1.786;2022-10-22T16:54:46;19.30;99.90
16976;DHT22;8604;48.148;-1.786;2022-10-22T16:57:15;19.30;99.90
16976;DHT22;8604;48.148;-1.786;2022-10-22T17:00:10;19.30;99.90
16976;DHT22;8604;48.148;-1.786;2022-10-22T17:06:17;19.20;99.90
16976;DHT22;8604;48.148;-1.786;2022-10-22T17:08:46;19.10;99.90
16976;DHT22;8604;48.148;-1.786;2022-10-22T17:11:16;19.00;99.90
16976;DHT22;8604;48.148;-1.786;2022-10-22T17:13:47;19.00;99.90
16976;DHT22;8604;48.148;-1.786;2022-10-22T17:16:17;18.90;99.90
16976;DHT22;8604;48.148;-1.786;2022-10-22T17:18:47;18.90;99.90
16976;DHT22;8604;48.148;-1.786;2022-10-22T17:21:18;18.90;99.90
16976;DHT22;8604;48.148;-1.786;2022-10-22T17:23:47;18.80;99.90
16976;DHT22;8604;48.148;-1.786;2022-10-22T17:26:18;18.80;99.90
16976;DHT22;8604;48.148;-1.786;2022-10-22T17:28:47;18.70;99.90
16976;DHT22;8604;48.148;-1.786;2022-10-22T17:31:18;18.70;99.90
16976;DHT22;8604;48.148;-1.786;2022-10-22T17:33:47;18.70;99.90
16976;DHT22;8604;48.148;-1.786;2022-10-22T17:36:18;18.60;99.90
16976;DHT22;8604;48.148;-1.786;2022-10-22T17:38:48;18.60;99.90
16976;DHT22;8604;48.148;-1.786;2022-10-22T17:41:19;18.60;99.90
16976;DHT22;8604;48.148;-1.786;2022-10-22T17:43:48;18.60;99.90
16976;DHT22;8604;48.148;-1.786;2022-10-22T17:46:19;18.50;99.90
16976;DHT22;8604;48.148;-1.786;2022-10-22T17:48:48;18.50;99.90
16976;DHT22;8604;48.148;-1.786;2022-10-22T17:51:19;18.50;99.90
16976;DHT22;8604;48.148;-1.786;2022-10-22T17:53:49;18.40;99.90
16976;DHT22;8604;48.148;-1.786;2022-10-22T17:56:19;18.40;99.90
16976;DHT22;8604;48.148;-1.786;2022-10-22T17:58:48;18.40;99.90
16976;DHT22;8604;48.148;-1.786;2022-10-22T18:05:34;18.40;99.90
16976;DHT22;8604;48.148;-1.786;2022-10-22T18:08:18;18.30;99.90
16976;DHT22;8604;48.148;-1.786;2022-10-22T18:10:49;18.30;99.90
16976;DHT22;8604;48.148;-1.786;2022-10-22T18:13:25;18.20;99.90
16976;DHT22;8604;48.148;-1.786;2022-10-22T18:15:59;18.30;99.90
16976;DHT22;8604;48.148;-1.786;2022-10-22T18:18:44;18.20;99.90
16976;DHT22;8604;48.148;-1.786;2022-10-22T18:21:22;18.20;99.90
16976;DHT22;8604;48.148;-1.786;2022-10-22T18:23:54;18.20;99.90
16976;DHT22;8604;48.148;-1.786;2022-10-22T18:26:25;18.10;99.90
16976;DHT22;8604;48.148;-1.786;2022-10-22T18:29:09;18.20;99.90
16976;DHT22;8604;48.148;-1.786;2022-10-22T18:31:43;18.20;99.90
16976;DHT22;8604;48.148;-1.786;2022-10-22T18:34:25;18.20;99.90
16976;DHT22;8604;48.148;-1.786;2022-10-22T18:36:58;18.20;99.90
16976;DHT22;8604;48.148;-1.786;2022-10-22T18:39:44;18.10;99.90
16976;DHT22;8604;48.148;-1.786;2022-10-22T22:00:31;17.70;99.90
16976;DHT22;8604;48.148;-1.786;2022-10-22T22:03:04;17.70;99.90
16976;DHT22;8604;48.148;-1.786;2022-10-22T22:05:33;17.70;99.90
16976;DHT22;8604;48.148;-1.786;2022-10-22T22:08:02;17.60;99.90
16976;DHT22;8604;48.148;-1.786;2022-10-22T22:10:31;17.70;99.90
16976;DHT22;8604;48.148;-1.786;2022-10-22T22:13:02;17.60;99.90
16976;DHT22;8604;48.148;-1.786;2022-10-22T22:15:34;17.60;99.90
16976;DHT22;8604;48.148;-1.786;2022-10-22T22:18:06;17.60;99.90
16976;DHT22;8604;48.148;-1.786;2022-10-22T22:20:37;17.70;99.90
16976;DHT22;8604;48.148;-1.786;2022-10-22T22:23:06;17.60;99.90
16976;DHT22;8604;48.148;-1.786;2022-10-22T22:25:35;17.60;99.90
16976;DHT22;8604;48.148;-1.786;2022-10-22T22:28:04;17.60;99.90
16976;DHT22;8604;48.148;-1.786;2022-10-22T22:30:34;17.60;99.90
16976;DHT22;8604;48.148;-1.786;2022-10-22T22:33:04;17.60;99.90
16976;DHT22;8604;48.148;-1.786;2022-10-22T22:35:34;17.60;99.90
16976;DHT22;8604;48.148;-1.786;2022-10-22T22:38:03;17.60;99.90
16976;DHT22;8604;48.148;-1.786;2022-10-22T22:40:33;17.60;99.90
16976;DHT22;8604;48.148;-1.786;2022-10-22T22:43:05;17.60;99.90
16976;DHT22;8604;48.148;-1.786;2022-10-22T22:45:43;17.60;99.90
16976;DHT22;8604;48.148;-1.786;2022-10-22T22:48:16;17.60;99.90
16976;DHT22;8604;48.148;-1.786;2022-10-22T22:50:45;17.60;99.90
16976;DHT22;8604;48.148;-1.786;2022-10-22T22:53:14;17.60;99.90
16976;DHT22;8604;48.148;-1.786;2022-10-22T22:55:44;17.60;99.90
16976;DHT22;8604;48.148;-1.786;2022-10-22T22:58:19;17.60;99.90
16976;DHT22;8604;48.148;-1.786;2022-10-22T23:01:07;17.60;99.90
16976;DHT22;8604;48.148;-1.786;2022-10-22T23:03:36;17.60;99.90
16976;DHT22;8604;48.148;-1.786;2022-10-22T23:06:07;17.60;99.90
16976;DHT22;8604;48.148;-1.786;2022-10-22T23:08:36;17.60;99.90
16976;DHT22;8604;48.148;-1.786;2022-10-22T23:11:08;17.60;99.90
16976;DHT22;8604;48.148;-1.786;2022-10-22T23:13:38;17.60;99.90
16976;DHT22;8604;48.148;-1.786;2022-10-22T23:16:13;17.60;99.90
16976;DHT22;8604;48.148;-1.786;2022-10-22T23:18:46;17.60;99.90
16976;DHT22;8604;48.148;-1.786;2022-10-22T23:21:20;17.60;99.90
16976;DHT22;8604;48.148;-1.786;2022-10-22T23:23:54;17.60;99.90
16976;DHT22;8604;48.148;-1.786;2022-10-22T23:26:25;17.60;99.90
16976;DHT22;8604;48.148;-1.786;2022-10-22T23:28:59;17.60;99.90
16976;DHT22;8604;48.148;-1.786;2022-10-22T23:31:33;17.60;99.90
16976;DHT22;8604;48.148;-1.786;2022-10-22T23:34:02;17.60;99.90
16976;DHT22;8604;48.148;-1.786;2022-10-22T23:36:39;17.60;99.90
16976;DHT22;8604;48.148;-1.786;2022-10-22T23:39:17;17.60;99.90
16976;DHT22;8604;48.148;-1.786;2022-10-22T23:41:49;17.60;99.90
16976;DHT22;8604;48.148;-1.786;2022-10-22T23:44:25;17.60;99.90
16976;DHT22;8604;48.148;-1.786;2022-10-22T23:47:03;17.60;99.90
16976;DHT22;8604;48.148;-1.786;2022-10-22T23:49:47;17.60;99.90
16976;DHT22;8604;48.148;-1.786;2022-10-22T23:52:23;17.60;99.90
16976;DHT22;8604;48.148;-1.786;2022-10-22T23:55:03;17.60;99.90
16976;DHT22;8604;48.148;-1.786;2022-10-22T23:57:38;17.60;99.90
